Time;durP1;ratioP1;P1;durP2;ratioP2;P2;SDS_P1;SDS_P2;PMS_P1;PMS_P2;Temp;Humidity;BMP_temperature;BMP_pressure;BME280_temperature;BME280_humidity;BME280_pressure;Samples;Min_cycle;Max_cycle;Signal;HPM_P1;HPM_P2
2021/12/05 00:22:57;;;;;;;24.15;7.50;;;;;;;4.35;92.66;99681.63;7396931;19;20017;-63
2021/12/05 00:25:30;;;;;;;20.73;8.43;;;;;;;4.30;92.19;99679.22;7392957;19;20026;-62
2021/12/05 00:28:32;;;;;;;;;;;;;;;4.30;92.41;99686.16;7393026;19;20023;-62
2021/12/05 00:31:15;;;;;;;;;;;;;;;4.28;92.40;99685.34;7389973;19;19942;-58
2021/12/05 00:50:41;;;;;;;24.70;7.50;;;;;;;4.27;91.56;99678.47;7393233;19;20015;-63
2021/12/05 00:53:51;;;;;;;15.80;6.68;;;;;;;4.25;91.45;99675.94;7396614;19;20305;-60
2021/12/05 00:56:31;;;;;;;21.35;7.45;;;;;;;4.21;91.41;99676.94;7396243;19;20349;-56
2021/12/05 00:59:17;;;;;;;17.30;6.80;;;;;;;4.19;91.50;99681.34;7394938;19;20022;-57
2021/12/05 01:04:47;;;;;;;21.83;6.65;;;;;;;4.15;90.51;99692.72;7393004;19;20480;-55
2021/12/05 01:07:28;;;;;;;21.10;6.97;;;;;;;4.16;90.49;99697.03;7395720;19;20061;-59
2021/12/05 01:10:10;;;;;;;19.42;6.18;;;;;;;4.12;90.53;99698.03;7394506;19;20014;-60
2021/12/05 01:13:03;;;;;;;21.45;6.50;;;;;;;4.11;90.09;99681.66;7401276;19;20033;-59
2021/12/05 01:15:33;;;;;;;17.77;6.03;;;;;;;4.08;90.01;99686.91;7392709;19;20026;-55
2021/12/05 01:18:05;;;;;;;19.45;6.50;;;;;;;4.05;90.15;99689.63;7395853;19;20101;-54
2021/12/05 01:20:39;;;;;;;17.40;5.80;;;;;;;4.04;89.76;99687.94;7392021;19;20039;-59
2021/12/05 01:23:18;;;;;;;20.08;5.95;;;;;;;3.99;89.44;99684.66;7394515;19;20014;-58
2021/12/05 01:25:54;;;;;;;14.75;5.60;;;;;;;3.99;88.94;99693.28;7394440;19;20527;-61
2021/12/05 01:28:27;;;;;;;18.02;5.60;;;;;;;4.01;89.44;99701.00;7390743;19;20026;-59
2021/12/05 01:30:59;;;;;;;12.57;5.45;;;;;;;4.02;88.91;99694.91;7391907;19;20006;-56
2021/12/05 01:33:41;;;;;;;17.45;5.38;;;;;;;4.06;88.60;99693.06;7391904;19;20151;-56
2021/12/05 01:36:17;;;;;;;20.55;6.43;;;;;;;4.08;88.82;99699.88;7394123;19;20026;-57
2021/12/05 01:39:06;;;;;;;15.20;5.55;;;;;;;4.10;89.18;99705.88;7394023;19;20019;-54
2021/12/05 01:47:58;;;;;;;18.77;6.10;;;;;;;4.11;89.27;99704.97;7390101;19;20086;-64
2021/12/05 01:53:43;;;;;;;;;;;;;;;4.09;88.83;99704.16;7392573;19;20534;-64
2021/12/05 01:59:14;;;;;;;19.13;5.97;;;;;;;4.07;88.30;99697.34;7392258;19;20019;-63
2021/12/05 02:15:57;;;;;;;12.85;4.57;;;;;;;4.15;88.25;99703.09;7390629;19;20007;-64
2021/12/05 02:32:34;;;;;;;16.67;5.13;;;;;;;4.12;87.72;99711.00;7387225;19;20014;-63
2021/12/05 02:35:21;;;;;;;17.10;5.32;;;;;;;4.05;87.35;99712.94;7391272;19;20078;-63
2021/12/05 02:40:47;;;;;;;21.73;5.50;;;;;;;4.10;88.21;99721.41;7391065;19;20383;-65
2021/12/05 02:43:24;;;;;;;15.45;5.68;;;;;;;4.08;88.23;99720.59;7389370;19;20010;-66
2021/12/05 02:45:58;;;;;;;14.88;5.43;;;;;;;4.07;88.10;99723.25;7389586;19;20103;-63
2021/12/05 02:48:30;;;;;;;18.20;5.22;;;;;;;4.04;87.60;99723.38;7387944;19;20399;-65
2021/12/05 02:51:00;;;;;;;15.85;5.90;;;;;;;4.04;87.64;99718.19;7388223;19;20014;-64
2021/12/05 02:53:38;;;;;;;20.20;5.50;;;;;;;4.06;88.06;99725.00;7388689;19;20014;-65
2021/12/05 02:56:09;;;;;;;17.73;5.53;;;;;;;4.09;88.38;99724.06;7393848;19;20146;-63
2021/12/05 02:58:43;;;;;;;20.75;6.22;;;;;;;4.11;88.32;99730.91;7391716;19;20014;-62
2021/12/05 03:01:20;;;;;;;14.35;5.95;;;;;;;4.12;88.12;99732.56;7393041;19;20017;-63
2021/12/05 03:03:50;;;;;;;18.50;5.80;;;;;;;4.14;87.67;99729.91;7389043;19;20022;-65
2021/12/05 03:06:23;;;;;;;16.85;5.65;;;;;;;4.14;87.32;99730.78;7389061;19;20010;-64
2021/12/05 03:08:58;;;;;;;19.20;6.20;;;;;;;4.08;87.01;99722.38;7391040;19;20022;-65
2021/12/05 03:11:30;;;;;;;19.25;5.95;;;;;;;3.98;86.66;99719.25;7391285;19;20019;-65
2021/12/05 03:14:00;;;;;;;19.48;5.90;;;;;;;3.97;87.37;99718.41;7391096;19;20320;-65
2021/12/05 03:16:30;;;;;;;18.00;5.35;;;;;;;3.92;87.17;99725.50;7387873;19;20021;-65
2021/12/05 03:18:59;;;;;;;17.27;5.32;;;;;;;3.92;87.62;99717.72;7389605;19;20027;-64
2021/12/05 03:21:28;;;;;;;17.65;5.82;;;;;;;3.93;88.15;99714.22;7388429;19;20011;-65
2021/12/05 03:24:01;;;;;;;16.98;5.78;;;;;;;3.95;87.88;99719.34;7391561;19;20025;-65
2021/12/05 03:26:32;;;;;;;15.75;5.60;;;;;;;3.94;87.93;99712.47;7391748;19;20101;-64
2021/12/05 03:29:02;;;;;;;19.48;5.65;;;;;;;3.94;88.06;99712.47;7388525;19;20010;-65
2021/12/05 03:31:33;;;;;;;15.68;4.93;;;;;;;3.90;87.91;99719.53;7387055;19;20030;-64
2021/12/05 03:34:02;;;;;;;17.73;5.78;;;;;;;3.85;87.63;99713.63;7391436;19;20015;-64
2021/12/05 03:36:31;;;;;;;18.70;5.43;;;;;;;3.85;87.57;99724.00;7387227;19;20034;-65
2021/12/05 03:39:04;;;;;;;16.00;5.30;;;;;;;3.83;87.87;99723.22;7388557;19;20019;-64
2021/12/05 03:41:33;;;;;;;14.40;5.13;;;;;;;3.85;87.89;99723.16;7391795;19;20019;-64
2021/12/05 03:44:02;;;;;;;18.60;5.60;;;;;;;3.84;87.93;99718.88;7386503;19;20026;-65
2021/12/05 03:46:33;;;;;;;18.30;5.47;;;;;;;3.84;87.63;99724.06;7388668;19;20061;-65
2021/12/05 03:49:08;;;;;;;16.38;5.60;;;;;;;3.81;87.82;99730.19;7388648;19;20320;-65
2021/12/05 03:51:42;;;;;;;17.55;5.15;;;;;;;3.86;88.07;99725.72;7384968;19;20461;-64
2021/12/05 03:54:14;;;;;;;16.13;5.47;;;;;;;3.87;87.78;99724.81;7389405;19;20018;-64
2021/12/05 03:56:43;;;;;;;16.83;4.83;;;;;;;3.88;87.89;99728.25;7391966;19;20368;-64
2021/12/05 03:59:15;;;;;;;15.65;4.88;;;;;;;3.89;88.23;99727.34;7387799;19;20014;-65
2021/12/05 04:01:44;;;;;;;16.30;5.43;;;;;;;3.89;88.44;99717.00;7387908;19;20018;-65
2021/12/05 04:04:17;;;;;;;22.48;5.90;;;;;;;3.91;88.30;99722.94;7388722;19;20025;-65
2021/12/05 04:06:46;;;;;;;;;;;;;;;3.89;88.22;99725.59;7388192;19;20018;-65
2021/12/05 04:09:19;;;;;;;15.52;4.60;;;;;;;3.86;88.56;99720.53;7387242;19;20000;-65
2021/12/05 04:11:57;;;;;;;14.52;4.90;;;;;;;3.87;88.50;99721.38;7390968;19;20022;-65
2021/12/05 04:14:27;;;;;;;13.95;5.20;;;;;;;3.86;88.48;99723.13;7384828;19;20039;-63
2021/12/05 04:16:57;;;;;;;17.48;6.90;;;;;;;3.93;88.41;99718.59;7390446;19;20086;-63
2021/12/05 04:19:26;;;;;;;18.75;6.28;;;;;;;3.91;88.67;99722.94;7387247;19;20372;-64
2021/12/05 04:21:55;;;;;;;18.83;6.80;;;;;;;3.89;88.69;99729.94;7387229;19;20026;-64
2021/12/05 04:24:27;;;;;;;18.25;7.00;;;;;;;3.88;88.63;99723.91;7385541;19;20049;-64
2021/12/05 04:26:56;;;;;;;19.57;7.47;;;;;;;3.87;88.55;99722.22;7386711;19;20781;-64
2021/12/05 04:29:25;;;;;;;16.23;7.30;;;;;;;3.85;88.72;99721.41;7384998;19;20022;-63
2021/12/05 04:31:55;;;;;;;16.77;7.53;;;;;;;3.89;88.83;99719.59;7385123;19;20014;-64
2021/12/05 04:34:23;;;;;;;15.88;7.05;;;;;;;3.93;89.02;99724.59;7385464;19;20359;-63
2021/12/05 04:36:56;;;;;;;12.95;7.13;;;;;;;3.97;89.02;99720.16;7386533;19;20018;-63
2021/12/05 04:39:29;;;;;;;18.35;7.63;;;;;;;4.02;89.08;99720.00;7388018;19;20472;-63
2021/12/05 04:41:58;;;;;;;18.40;7.57;;;;;;;4.05;89.35;99728.50;7387463;19;20487;-63
2021/12/05 04:44:29;;;;;;;19.15;7.65;;;;;;;4.08;88.99;99730.16;7383936;19;20392;-63
2021/12/05 04:47:00;;;;;;;18.48;7.63;;;;;;;4.09;88.42;99734.44;7385076;19;20010;-64
2021/12/05 04:49:29;;;;;;;15.05;7.50;;;;;;;4.09;88.29;99731.84;7386041;19;20049;-63
2021/12/05 04:51:58;;;;;;;17.60;7.85;;;;;;;4.07;87.69;99725.84;7384699;19;20014;-63
2021/12/05 04:54:30;;;;;;;18.33;8.40;;;;;;;4.05;87.97;99732.84;7384467;19;20129;-63
2021/12/05 04:56:59;;;;;;;17.60;7.70;;;;;;;4.07;88.36;99731.91;7389665;19;20086;-63
2021/12/05 04:59:32;;;;;;;14.13;7.28;;;;;;;4.09;88.53;99734.44;7390397;19;20503;-63
2021/12/05 05:02:01;;;;;;;23.00;8.20;;;;;;;4.08;88.60;99730.16;7385890;19;20042;-63
2021/12/05 05:04:36;;;;;;;14.07;7.55;;;;;;;4.11;88.73;99724.84;7386612;19;20018;-63
2021/12/05 05:07:10;;;;;;;17.55;7.78;;;;;;;4.14;88.77;99732.50;7393139;19;20022;-62
2021/12/05 05:09:42;;;;;;;14.32;7.55;;;;;;;4.16;88.89;99733.31;7393290;19;20014;-65
2021/12/05 05:12:11;;;;;;;16.38;7.32;;;;;;;4.17;88.82;99742.81;7390194;19;20022;-65
2021/12/05 05:14:41;;;;;;;14.80;8.23;;;;;;;4.18;88.80;99733.25;7394037;19;20475;-65
2021/12/05 05:17:10;;;;;;;16.42;8.10;;;;;;;4.20;88.78;99739.22;7391649;19;20479;-65
2021/12/05 05:19:45;;;;;;;12.85;7.80;;;;;;;4.22;89.24;99742.63;7393444;19;20015;-66
2021/12/05 05:22:25;;;;;;;16.27;8.35;;;;;;;4.26;89.03;99741.63;7392105;19;20435;-64
2021/12/05 05:30:46;;;;;;;14.05;8.30;;;;;;;4.30;89.09;99744.03;7390722;19;20026;-64
2021/12/05 05:47:02;;;;;;;16.52;8.57;;;;;;;4.45;88.02;99771.16;7392018;19;20011;-64
2021/12/05 05:52:13;;;;;;;18.50;9.02;;;;;;;4.46;88.14;99777.22;7388884;19;20036;-64
2021/12/05 05:54:45;;;;;;;16.17;8.68;;;;;;;4.48;88.37;99770.22;7392031;19;20023;-65
2021/12/05 05:57:24;;;;;;;17.60;9.50;;;;;;;4.49;88.18;99777.94;7389537;19;20070;-63
2021/12/05 05:59:59;;;;;;;17.13;9.50;;;;;;;4.49;87.92;99772.75;7392003;19;20022;-64
2021/12/05 06:05:10;;;;;;;16.23;8.20;;;;;;;4.50;87.45;99782.22;7391625;19;20458;-65
2021/12/05 06:07:45;;;;;;;14.98;8.35;;;;;;;4.49;87.76;99782.28;7391030;19;20014;-65
2021/12/05 06:10:17;;;;;;;16.95;8.63;;;;;;;4.46;87.46;99785.00;7394947;19;20049;-65
2021/12/05 06:12:50;;;;;;;14.55;8.35;;;;;;;4.46;87.70;99783.25;7390910;19;20010;-65
2021/12/05 06:15:21;;;;;;;13.65;8.25;;;;;;;4.51;87.67;99783.06;7391302;19;20010;-65
2021/12/05 06:17:50;;;;;;;14.07;7.95;;;;;;;4.52;87.66;99786.53;7394999;19;20026;-64
2021/12/05 06:20:22;;;;;;;13.80;8.35;;;;;;;4.51;87.79;99796.03;7395371;19;20037;-64
2021/12/05 06:22:51;;;;;;;17.55;8.82;;;;;;;4.48;87.65;99799.63;7391088;19;20018;-65
2021/12/05 06:25:23;;;;;;;16.05;9.10;;;;;;;4.51;88.02;99806.41;7393341;19;20019;-65
2021/12/05 06:27:57;;;;;;;13.73;8.18;;;;;;;4.52;88.14;99808.13;7389702;19;20022;-65
2021/12/05 06:30:36;;;;;;;16.70;9.07;;;;;;;4.51;88.13;99801.22;7391201;19;20018;-65
2021/12/05 06:38:43;;;;;;;13.93;8.37;;;;;;;4.48;87.70;99810.00;7395298;19;20018;-65
2021/12/05 06:41:21;;;;;;;12.73;8.02;;;;;;;4.45;87.92;99811.84;7390284;19;20263;-65
2021/12/05 06:46:35;;;;;;;13.95;8.02;;;;;;;4.40;88.38;99817.19;7389578;19;20017;-64
2021/12/05 06:49:04;;;;;;;13.77;8.18;;;;;;;4.43;88.99;99824.84;7394193;19;20817;-65
2021/12/05 06:51:33;;;;;;;14.45;8.40;;;;;;;4.44;89.15;99826.56;7389274;19;20014;-65
2021/12/05 06:54:02;;;;;;;12.25;8.25;;;;;;;4.40;88.93;99819.78;7390002;19;20841;-65
2021/12/05 06:56:31;;;;;;;10.27;7.85;;;;;;;4.43;88.73;99821.44;7387447;19;20033;-63
2021/12/05 06:59:02;;;;;;;13.70;8.35;;;;;;;4.45;88.82;99833.41;7390117;19;20395;-65
2021/12/05 07:01:31;;;;;;;14.85;8.57;;;;;;;4.45;89.07;99833.41;7390427;19;20053;-65
2021/12/05 07:04:08;;;;;;;15.18;8.73;;;;;;;4.48;88.90;99830.75;7390761;19;20053;-64
2021/12/05 07:06:40;;;;;;;11.55;8.65;;;;;;;4.50;88.64;99839.31;7388395;19;20019;-65
2021/12/05 07:09:10;;;;;;;13.90;8.50;;;;;;;4.52;88.46;99839.25;7390040;19;20517;-65
2021/12/05 07:11:47;;;;;;;14.93;9.00;;;;;;;4.55;88.97;99838.31;7388429;19;20026;-64
2021/12/05 07:17:07;;;;;;;13.75;9.18;;;;;;;4.59;88.91;99843.31;7385793;19;20014;-63
2021/12/05 07:19:50;;;;;;;13.23;9.27;;;;;;;4.64;89.26;99848.34;7389081;19;20021;-65
2021/12/05 07:22:24;;;;;;;;;;;;;;;4.65;88.85;99848.28;7394378;19;20087;-63
2021/12/05 07:24:54;;;;;;;13.88;9.07;;;;;;;4.66;89.07;99846.56;7395267;19;19943;-64
2021/12/05 07:41:12;;;;;;;14.75;9.20;;;;;;;4.61;88.07;99861.44;7393298;19;20019;-64
2021/12/05 07:43:40;;;;;;;13.13;9.50;;;;;;;4.64;88.54;99861.31;7387402;19;20357;-64
2021/12/05 07:46:13;;;;;;;12.50;9.55;;;;;;;4.62;88.53;99868.31;7390631;19;20006;-62
2021/12/05 07:48:45;;;;;;;11.80;9.18;;;;;;;4.56;88.19;99866.78;7389112;19;20022;-63
2021/12/05 07:51:24;;;;;;;10.18;8.40;;;;;;;4.54;88.05;99878.09;7387841;19;20025;-63
2021/12/05 07:54:00;;;;;;;10.35;8.20;;;;;;;4.47;87.86;99875.72;7388380;19;20018;-64
2021/12/05 07:56:38;;;;;;;9.70;7.80;;;;;;;4.41;87.33;99880.28;7391763;19;20363;-64
2021/12/05 07:59:25;;;;;;;8.52;7.40;;;;;;;4.38;87.13;99877.78;7388414;19;20049;-62
2021/12/05 08:15:28;;;;;;;10.13;8.25;;;;;;;4.38;87.65;99899.38;7387906;19;20518;-62
2021/12/05 08:17:59;;;;;;;8.90;8.00;;;;;;;4.41;87.90;99901.84;7390568;19;20486;-61
2021/12/05 08:20:31;;;;;;;9.15;8.23;;;;;;;4.45;87.69;99910.41;7391032;19;20023;-62
2021/12/05 08:23:02;;;;;;;12.30;8.97;;;;;;;4.42;87.96;99911.34;7387073;19;20040;-62
2021/12/05 08:25:34;;;;;;;11.00;9.38;;;;;;;4.41;87.41;99919.19;7386598;19;20010;-63
2021/12/05 08:28:18;;;;;;;11.47;8.90;;;;;;;4.44;87.30;99921.66;7385900;19;20014;-63
2021/12/05 08:30:54;;;;;;;11.63;9.48;;;;;;;4.48;87.47;99924.13;7387731;19;20015;-62
2021/12/05 08:33:43;;;;;;;10.65;9.32;;;;;;;4.50;87.65;99924.06;7390351;19;20035;-61
2021/12/05 08:39:33;;;;;;;13.30;10.23;;;;;;;4.56;87.57;99936.84;7390826;19;20010;-62
2021/12/05 08:42:27;;;;;;;11.43;10.23;;;;;;;4.59;87.62;99939.31;7394115;19;20066;-63
2021/12/05 09:26:09;;;;;;;13.82;11.25;;;;;;;4.69;87.59;99986.56;7389200;19;20047;-63
2021/12/05 09:38:33;;;;;;;16.67;12.40;;;;;;;4.69;87.69;99996.94;7388794;19;20105;-64
2021/12/05 10:07:00;;;;;;;15.57;11.80;;;;;;;4.74;89.00;100048.69;7394339;19;20116;-62
2021/12/05 10:09:54;;;;;;;18.05;12.93;;;;;;;4.77;89.06;100056.38;7394731;19;20022;-62
2021/12/05 10:12:59;;;;;;;16.48;12.23;;;;;;;4.78;89.12;100061.50;7389279;19;20007;-62
2021/12/05 10:15:51;;;;;;;16.25;12.52;;;;;;;4.77;88.68;100064.16;7390704;19;20450;-60
2021/12/05 10:35:23;;;;;;;16.23;12.68;;;;;;;4.76;89.45;100076.28;7394650;19;20388;-62
2021/12/05 10:38:00;;;;;;;15.93;12.55;;;;;;;4.72;89.32;100079.06;7390733;19;20053;-62
2021/12/05 10:40:39;;;;;;;14.20;11.32;;;;;;;4.74;89.57;100078.06;7391159;19;20018;-62
2021/12/05 10:43:14;;;;;;;16.45;12.25;;;;;;;4.79;89.32;100083.97;7391069;19;20010;-62
2021/12/05 10:45:48;;;;;;;15.73;12.50;;;;;;;4.79;89.34;100086.56;7390852;19;20015;-63
2021/12/05 10:48:24;;;;;;;14.90;11.60;;;;;;;4.77;89.36;100085.78;7390933;19;20019;-61
2021/12/05 10:50:56;;;;;;;16.15;11.93;;;;;;;4.76;89.45;100094.47;7391741;19;20018;-62
2021/12/05 10:53:31;;;;;;;14.48;11.23;;;;;;;4.79;89.70;100102.16;7390071;19;20102;-62
2021/12/05 10:56:07;;;;;;;17.45;12.38;;;;;;;4.81;89.71;100100.38;7390026;19;20070;-60
2021/12/05 10:58:40;;;;;;;15.73;12.38;;;;;;;4.77;89.05;100096.16;7390288;19;20035;-61
2021/12/05 11:01:21;;;;;;;16.30;12.00;;;;;;;4.82;89.08;100102.03;7390933;19;20019;-61
2021/12/05 11:03:51;;;;;;;15.10;11.70;;;;;;;4.82;89.21;100099.44;7388704;19;20097;-61
2021/12/05 11:06:23;;;;;;;16.48;12.43;;;;;;;4.82;89.31;100106.41;7389463;19;20363;-61
2021/12/05 11:08:56;;;;;;;15.88;12.00;;;;;;;4.81;89.33;100102.97;7393070;19;20025;-60
2021/12/05 11:11:27;;;;;;;15.80;12.55;;;;;;;4.80;89.55;100109.03;7389875;19;20025;-59
2021/12/05 11:13:58;;;;;;;16.70;12.68;;;;;;;4.85;89.57;100108.88;7388139;19;20015;-60
2021/12/05 11:16:58;;;;;;;16.35;12.60;;;;;;;4.91;89.69;100113.03;7389724;19;20002;-59
2021/12/05 11:19:34;;;;;;;16.52;12.20;;;;;;;4.91;89.57;100121.66;7388719;19;20054;-61
2021/12/05 11:22:10;;;;;;;17.55;13.02;;;;;;;4.90;89.66;100122.59;7390010;19;20734;-60
2021/12/05 11:24:43;;;;;;;17.10;13.18;;;;;;;4.95;89.69;100125.03;7392830;19;20210;-58
2021/12/05 11:27:19;;;;;;;18.20;12.68;;;;;;;4.97;89.90;100126.69;7388363;19;20118;-62
2021/12/05 11:30:09;;;;;;;16.85;13.32;;;;;;;4.97;89.92;100137.06;7393833;19;20061;-59
2021/12/05 11:32:47;;;;;;;17.05;12.90;;;;;;;4.97;89.71;100137.06;7387946;19;20018;-60
2021/12/05 11:35:26;;;;;;;16.95;13.18;;;;;;;4.99;89.74;100134.41;7389190;19;20028;-61
2021/12/05 11:38:00;;;;;;;16.25;12.82;;;;;;;5.02;89.46;100139.50;7388804;19;20025;-59
2021/12/05 11:40:32;;;;;;;16.98;13.02;;;;;;;5.03;89.48;100142.06;7388472;19;20042;-62
2021/12/05 11:43:04;;;;;;;15.98;12.65;;;;;;;5.03;89.00;100139.44;7388670;19;20014;-60
2021/12/05 11:45:50;;;;;;;16.00;12.55;;;;;;;5.05;89.16;100144.59;7388543;19;20010;-61
2021/12/05 11:48:25;;;;;;;19.17;13.07;;;;;;;5.03;88.85;100143.81;7387865;19;20010;-62
2021/12/05 11:50:54;;;;;;;16.23;12.70;;;;;;;5.03;88.66;100162.81;7389544;19;20074;-61
2021/12/05 11:53:42;;;;;;;15.98;12.00;;;;;;;5.01;88.60;100164.63;7387981;19;20371;-60
2021/12/05 11:56:11;;;;;;;17.27;12.85;;;;;;;5.00;88.98;100152.53;7387885;19;20218;-61
2021/12/05 11:58:41;;;;;;;16.67;12.73;;;;;;;5.03;88.89;100159.38;7388182;19;20451;-61
2021/12/05 12:01:13;;;;;;;17.13;12.95;;;;;;;5.07;88.72;100160.97;7387821;19;20041;-62
2021/12/05 12:03:44;;;;;;;15.80;12.02;;;;;;;5.10;88.73;100158.28;7387337;19;20019;-59
2021/12/05 12:06:20;;;;;;;16.30;12.95;;;;;;;5.14;88.78;100165.09;7387694;19;20367;-61
2021/12/05 12:08:50;;;;;;;16.13;12.57;;;;;;;5.15;88.47;100161.56;7391866;19;20010;-57
2021/12/05 12:11:18;;;;;;;15.85;12.45;;;;;;;5.15;88.22;100165.94;7389669;19;20010;-61
2021/12/05 12:13:49;;;;;;;15.07;12.93;;;;;;;5.14;88.13;100174.59;7391327;19;20015;-58
2021/12/05 12:16:17;;;;;;;15.80;12.20;;;;;;;5.14;88.08;100172.88;7396412;19;20006;-56
2021/12/05 12:18:50;;;;;;;15.73;12.07;;;;;;;5.13;87.92;100184.16;7395650;19;20517;-56
2021/12/05 12:21:23;;;;;;;13.52;11.30;;;;;;;5.15;87.78;100181.50;7395664;19;20187;-60
2021/12/05 12:23:54;;;;;;;14.43;11.77;;;;;;;5.16;88.03;100176.25;7397324;19;20085;-61
2021/12/05 12:26:25;;;;;;;15.67;11.83;;;;;;;5.16;88.00;100176.25;7395565;19;20019;-61
2021/12/05 12:28:58;;;;;;;15.57;12.43;;;;;;;5.20;88.27;100187.38;7395142;19;20098;-62
2021/12/05 12:31:33;;;;;;;14.63;12.43;;;;;;;5.16;87.89;100184.06;7395395;19;20018;-64
2021/12/05 12:34:08;;;;;;;16.33;12.45;;;;;;;5.18;87.74;100190.03;7391851;19;20780;-59
2021/12/05 12:36:40;;;;;;;16.45;12.52;;;;;;;5.24;87.91;100181.19;7397256;19;20014;-59
2021/12/05 12:39:28;;;;;;;13.15;11.38;;;;;;;5.29;87.90;100189.69;7398267;19;20019;-57
2021/12/05 12:42:06;;;;;;;15.57;11.95;;;;;;;5.33;88.16;100185.25;7395007;19;20422;-60
2021/12/05 12:44:36;;;;;;;15.10;11.88;;;;;;;5.32;87.81;100196.56;7391470;19;20495;-57
2021/12/05 12:47:07;;;;;;;13.98;10.88;;;;;;;5.31;87.69;100200.03;7390194;19;20074;-55
2021/12/05 12:49:41;;;;;;;14.68;11.13;;;;;;;5.31;87.86;100192.25;7393533;19;20106;-58
2021/12/05 12:52:13;;;;;;;13.88;10.85;;;;;;;5.29;87.82;100204.44;7393748;19;20015;-57
2021/12/05 12:54:44;;;;;;;14.77;11.25;;;;;;;5.26;87.75;100202.78;7394755;19;20416;-58
2021/12/05 12:57:16;;;;;;;13.20;10.63;;;;;;;5.23;87.64;100199.44;7392848;19;20033;-57
2021/12/05 12:59:50;;;;;;;12.75;10.05;;;;;;;5.20;87.54;100215.94;7393494;19;20022;-57
2021/12/05 13:02:36;;;;;;;12.07;9.60;;;;;;;5.22;87.79;100219.38;7393626;19;20021;-57
2021/12/05 13:05:34;;;;;;;11.18;9.20;;;;;;;5.20;87.46;100216.81;7394870;19;20399;-53
2021/12/05 13:10:52;;;;;;;11.60;9.40;;;;;;;5.20;87.29;100218.56;7390627;19;20014;-59
2021/12/05 13:13:23;;;;;;;10.35;9.07;;;;;;;5.20;87.42;100224.63;7390981;19;20021;-57
2021/12/05 13:15:57;;;;;;;10.05;8.43;;;;;;;5.20;87.36;100224.63;7393307;19;20074;-55
2021/12/05 13:18:32;;;;;;;10.55;8.75;;;;;;;5.19;87.50;100216.88;7394951;19;20014;-59
2021/12/05 13:21:10;;;;;;;10.07;8.65;;;;;;;5.23;87.60;100226.28;7393599;19;20018;-54
2021/12/05 13:23:42;;;;;;;11.13;8.95;;;;;;;5.26;87.81;100223.56;7395603;19;20022;-58
2021/12/05 13:26:32;;;;;;;11.50;8.60;;;;;;;5.32;87.78;100231.16;7390595;19;20022;-58
2021/12/05 13:29:14;;;;;;;10.35;8.60;;;;;;;5.34;87.75;100233.72;7392981;19;20216;-57
2021/12/05 13:31:49;;;;;;;10.35;8.18;;;;;;;5.33;87.45;100232.88;7392762;19;20024;-57
2021/12/05 13:34:50;;;;;;;9.15;7.82;;;;;;;5.31;86.99;100232.06;7393086;19;20123;-60
2021/12/05 13:37:34;;;;;;;10.48;8.50;;;;;;;5.31;87.09;100239.84;7392056;19;20102;-59
2021/12/05 13:40:19;;;;;;;11.07;8.40;;;;;;;5.33;87.06;100235.47;7393799;19;20490;-58
2021/12/05 13:42:51;;;;;;;11.68;9.10;;;;;;;5.32;87.14;100249.34;7392115;19;20828;-57
2021/12/05 13:45:33;;;;;;;9.52;8.23;;;;;;;5.37;86.92;100250.06;7395612;19;20018;-56
2021/12/05 13:48:18;;;;;;;10.23;8.63;;;;;;;5.40;86.85;100256.03;7391690;19;20023;-61
2021/12/05 13:50:56;;;;;;;10.38;8.77;;;;;;;5.43;86.64;100272.41;7391068;19;20006;-59
2021/12/05 13:53:31;;;;;;;10.68;8.52;;;;;;;5.46;86.64;100274.03;7392581;19;20026;-60
2021/12/05 13:56:15;;;;;;;10.50;8.60;;;;;;;5.45;86.60;100273.19;7390418;19;20399;-58
2021/12/05 13:58:47;;;;;;;10.05;8.55;;;;;;;5.40;86.38;100279.44;7396859;19;20015;-57
2021/12/05 14:01:19;;;;;;;9.93;8.75;;;;;;;5.37;86.33;100285.56;7393388;19;20053;-57
2021/12/05 14:03:58;;;;;;;10.73;8.85;;;;;;;5.34;86.37;100286.53;7391368;19;20431;-63
2021/12/05 14:06:33;;;;;;;9.45;8.30;;;;;;;5.35;86.04;100290.81;7391278;19;20505;-57
2021/12/05 14:09:09;;;;;;;9.50;8.50;;;;;;;5.36;86.17;100297.72;7392183;19;20017;-58
2021/12/05 14:11:43;;;;;;;11.38;9.38;;;;;;;5.40;86.31;100306.25;7391224;19;20011;-56
2021/12/05 14:14:13;;;;;;;10.57;9.23;;;;;;;5.40;85.90;100311.44;7389003;19;20010;-54
2021/12/05 14:16:44;;;;;;;11.55;9.20;;;;;;;5.45;86.15;100322.56;7391135;19;20106;-55
2021/12/05 14:19:15;;;;;;;10.88;9.40;;;;;;;5.48;86.09;100326.81;7391575;19;20015;-57
2021/12/05 14:21:46;;;;;;;12.00;10.25;;;;;;;5.51;86.21;100332.75;7390864;19;20015;-61
2021/12/05 14:24:19;;;;;;;14.00;9.85;;;;;;;5.54;86.55;100337.00;7389651;19;20025;-60
2021/12/05 14:26:51;;;;;;;12.52;10.48;;;;;;;5.55;86.67;100341.31;7390134;19;20006;-59
2021/12/05 14:29:21;;;;;;;12.85;10.73;;;;;;;5.57;86.69;100351.66;7391063;19;20210;-60
2021/12/05 14:31:57;;;;;;;13.93;11.23;;;;;;;5.60;86.75;100351.56;7391657;19;20093;-57
2021/12/05 14:34:28;;;;;;;13.40;11.68;;;;;;;5.59;86.54;100353.31;7388928;19;20017;-58
2021/12/05 14:36:59;;;;;;;14.23;12.15;;;;;;;5.55;86.41;100360.34;7390438;19;20316;-57
2021/12/05 14:39:33;;;;;;;15.73;12.27;;;;;;;5.56;86.45;100363.81;7391489;19;20022;-62
2021/12/05 14:42:08;;;;;;;17.42;13.75;;;;;;;5.54;86.62;100368.19;7389063;19;20551;-56
2021/12/05 14:44:38;;;;;;;15.10;13.13;;;;;;;5.53;86.87;100376.88;7388779;19;20011;-60
2021/12/05 14:47:09;;;;;;;16.17;13.35;;;;;;;5.51;86.77;100376.94;7390029;19;20243;-59
2021/12/05 14:49:41;;;;;;;16.55;13.52;;;;;;;5.50;86.76;100384.78;7394234;19;20097;-62
2021/12/05 14:52:14;;;;;;;16.20;13.75;;;;;;;5.50;86.93;100385.66;7397103;19;20021;-61
2021/12/05 14:54:46;;;;;;;15.82;12.40;;;;;;;5.51;86.74;100389.09;7395185;19;20015;-58
2021/12/05 14:57:17;;;;;;;16.23;12.95;;;;;;;5.47;86.59;100390.06;7394881;19;20026;-58
2021/12/05 14:59:48;;;;;;;15.77;12.75;;;;;;;5.48;86.44;100389.19;7396295;19;20062;-58
2021/12/05 15:02:19;;;;;;;15.80;13.23;;;;;;;5.48;86.42;100399.56;7392708;19;20010;-59
2021/12/05 15:04:51;;;;;;;16.60;13.98;;;;;;;5.46;86.65;100402.22;7390820;19;20011;-62
2021/12/05 15:07:21;;;;;;;16.58;13.73;;;;;;;5.48;86.55;100413.41;7389562;19;20014;-60
2021/12/05 15:09:54;;;;;;;15.23;13.25;;;;;;;5.50;86.74;100416.81;7390766;19;20029;-57
2021/12/05 15:12:26;;;;;;;16.60;13.85;;;;;;;5.54;87.00;100421.03;7388235;19;20070;-58
2021/12/05 15:14:59;;;;;;;16.30;13.07;;;;;;;5.56;86.85;100431.38;7388538;19;20018;-53
2021/12/05 15:17:30;;;;;;;15.82;12.73;;;;;;;5.53;86.68;100432.31;7389845;19;20010;-60
2021/12/05 15:20:02;;;;;;;17.67;12.85;;;;;;;5.52;86.48;100432.38;7390112;19;20395;-61
2021/12/05 15:22:31;;;;;;;14.60;12.00;;;;;;;5.49;86.44;100432.47;7390634;19;20490;-58
2021/12/05 15:25:06;;;;;;;16.77;12.60;;;;;;;5.48;86.32;100438.56;7388903;19;20021;-56
2021/12/05 15:27:37;;;;;;;14.60;11.85;;;;;;;5.45;86.26;100446.44;7388598;19;20024;-59
2021/12/05 15:30:12;;;;;;;18.05;12.65;;;;;;;5.38;85.79;100445.75;7389395;19;20014;-57
2021/12/05 15:32:41;;;;;;;16.98;11.80;;;;;;;5.36;85.98;100455.34;7389120;19;20021;-56
2021/12/05 15:35:12;;;;;;;15.43;12.13;;;;;;;5.32;86.01;100464.97;7387050;19;20027;-56
2021/12/05 15:37:48;;;;;;;17.05;13.18;;;;;;;5.31;86.55;100462.41;7388723;19;20015;-60
2021/12/05 15:40:21;;;;;;;20.35;14.23;;;;;;;5.29;86.46;100467.66;7388743;19;20022;-60
2021/12/05 15:42:51;;;;;;;18.83;14.88;;;;;;;5.31;86.60;100478.84;7387836;19;20014;-61
2021/12/05 15:45:22;;;;;;;20.13;13.90;;;;;;;5.31;86.66;100480.59;7388947;19;20025;-61
2021/12/05 15:47:51;;;;;;;19.02;13.35;;;;;;;5.31;86.58;100491.84;7386781;19;20010;-57
2021/12/05 15:50:22;;;;;;;18.75;13.40;;;;;;;5.31;86.71;100499.63;7387873;19;20136;-59
2021/12/05 15:52:54;;;;;;;16.60;12.90;;;;;;;5.34;86.78;100490.91;7387397;19;20021;-54
2021/12/05 15:55:29;;;;;;;16.42;13.10;;;;;;;5.36;86.91;100504.72;7387189;19;20014;-59
2021/12/05 15:58:06;;;;;;;19.95;13.27;;;;;;;5.38;87.11;100514.16;7387597;19;20014;-60
2021/12/05 16:00:39;;;;;;;16.65;12.30;;;;;;;5.33;86.63;100516.03;7389207;19;20019;-60
2021/12/05 16:03:10;;;;;;;16.25;12.00;;;;;;;5.34;86.44;100517.75;7387918;19;20511;-61
2021/12/05 16:05:43;;;;;;;17.05;12.13;;;;;;;5.34;86.65;100522.09;7388278;19;20392;-56
2021/12/05 16:08:15;;;;;;;18.63;12.80;;;;;;;5.32;86.56;100513.50;7386230;19;20379;-58